Date,TemperatureHighF,TemperatureAvgF,TemperatureLowF,DewpointHighF,DewpointAvgF,DewpointLowF,HumidityHigh,HumidityAvg,HumidityLow,PressureMaxIn,PressureMinIn,WindSpeedMaxMPH,WindSpeedAvgMPH,GustSpeedMaxMPH,PrecipitationSumIn
2013-1-1,29,13,4,-100,-100,-100,0,0,100,0.00,40.00,0,-999,0,0.00
2013-1-2,32,12,-6,-100,-100,-100,0,0,100,0.00,40.00,0,-999,0,0.00
2013-1-3,24,10,-9,-100,-100,-100,0,0,100,0.00,40.00,0,-999,0,0.00
2013-1-4,32,16,-3,-100,-100,-100,0,0,100,0.00,40.00,0,-999,0,0.00
2013-1-5,29,22,7,-100,-100,-100,0,0,100,0.00,40.00,0,-999,0,0.00
2013-1-6,29,24,21,-100,-100,-100,0,0,100,0.00,40.00,0,-999,0,0.00
2013-1-7,36,30,22,-100,-100,-100,0,0,100,0.00,40.00,0,-999,0,0.00
2013-1-8,41,35,29,-100,-100,-100,0,0,100,0.00,40.00,0,-999,0,0.00
2013-1-9,37,30,21,-100,-100,-100,0,0,100,0.00,40.00,0,-999,0,0.00
2013-1-10,27,20,4,-100,-100,-100,0,0,100,0.00,40.00,0,-999,0,0.00
2013-1-11,25,17,-2,-100,-100,-100,0,0,100,0.00,40.00,0,-999,0,0.00
2013-1-12,18,4,-19,-100,-100,-100,0,0,100,0.00,40.00,0,-999,0,0.00
2013-1-13,22,6,-24,-100,-100,-100,0,0,100,0.00,40.00,0,-999,0,0.00
2013-1-14,28,5,-14,-100,-100,-100,0,0,100,0.00,40.00,0,-999,0,0.00
2013-1-15,37,20,-7,-100,-100,-100,0,0,100,0.00,40.00,0,-999,0,0.00
2013-1-16,44,19,-8,-100,-100,-100,0,0,100,0.00,40.00,0,-999,0,0.00
2013-1-17,45,26,5,-100,-100,-100,0,0,100,0.00,40.00,0,-999,0,0.00
2013-1-18,47,23,-3,-100,-100,-100,0,0,100,0.00,40.00,0,-999,0,0.00
2013-1-19,43,18,-3,-100,-100,-100,0,0,100,0.00,40.00,0,-999,0,0.00
2013-1-20,43,20,-8,-100,-100,-100,0,0,100,0.00,40.00,0,-999,0,0.00
2013-1-21,43,16,-12,-100,-100,-100,0,0,100,0.00,40.00,0,-999,0,0.00
2013-1-22,43,26,-3,-100,-100,-100,0,0,100,0.00,40.00,0,-999,0,0.00
2013-1-23,40,32,24,-100,-100,-100,0,0,100,0.00,40.00,0,-999,0,0.00
2013-1-24,39,35,32,-100,-100,-100,0,0,100,0.00,40.00,0,-999,0,0.00
2013-1-25,36,35,32,-100,-100,-100,0,0,100,0.00,40.00,0,-999,0,0.00
2013-1-26,36,30,25,-100,-100,-100,0,0,100,0.00,40.00,0,-999,0,0.00
2013-1-27,31,24,14,-100,-100,-100,0,0,100,0.00,40.00,0,-999,0,0.00
2013-1-28,32,28,22,-100,-100,-100,0,0,100,0.00,40.00,0,-999,0,0.00
2013-1-29,36,33,28,-100,-100,-100,0,0,100,0.00,40.00,0,-999,0,0.00
2013-1-30,47,31,21,-100,-100,-100,0,0,100,0.00,40.00,0,-999,0,0.00
2013-1-31,45,29,14,-100,-100,-100,0,0,100,0.00,40.00,0,-999,0,0.00
2013-2-1,48,26,10,-100,-100,-100,0,0,100,0.00,40.00,0,-999,0,0.00
2013-2-2,40,26,10,-100,-100,-100,0,0,100,0.00,40.00,0,-999,0,0.00
2013-2-3,47,30,10,-100,-100,-100,0,0,100,0.00,40.00,0,-999,0,0.00
2013-2-4,48,33,23,-100,-100,-100,0,0,100,0.00,40.00,0,-999,0,0.00
2013-2-5,39,32,24,-100,-100,-100,0,0,100,0.00,40.00,0,-999,0,0.00
2013-2-6,40,30,22,-100,-100,-100,0,0,100,0.00,40.00,0,-999,0,0.00
2013-2-7,35,28,20,-100,-100,-100,0,0,100,0.00,40.00,0,-999,0,0.00
2013-2-8,35,24,9,-100,-100,-100,0,0,100,0.00,40.00,0,-999,0,0.00
2013-2-9,42,25,7,-100,-100,-100,0,0,100,0.00,40.00,0,-999,0,0.00
2013-2-10,41,26,16,-100,-100,-100,0,0,100,0.00,40.00,0,-999,0,0.00
2013-2-11,49,28,9,-100,-100,-100,0,0,100,0.00,40.00,0,-999,0,0.00
2013-2-12,43,30,15,-100,-100,-100,0,0,100,0.00,40.00,0,-999,0,0.00
2013-2-13,47,32,22,-100,-100,-100,0,0,100,0.00,40.00,0,-999,0,0.00
2013-2-14,47,31,18,-100,-100,-100,0,0,100,0.00,40.00,0,-999,0,0.00
2013-2-15,51,33,16,-100,-100,-100,0,0,100,0.00,40.00,0,-999,0,0.00
2013-2-16,47,34,14,-100,-100,-100,0,0,100,0.00,40.00,0,-999,0,0.00
2013-2-17,40,24,12,-100,-100,-100,0,0,100,0.00,40.00,0,-999,0,0.00
2013-2-18,39,27,15,-100,-100,-100,0,0,100,0.00,40.00,0,-999,0,0.00
2013-2-19,31,25,21,-100,-100,-100,0,0,100,0.00,40.00,0,-999,0,0.00
2013-2-20,37,25,13,-100,-100,-100,0,0,100,0.00,40.00,0,-999,0,0.00
2013-2-21,32,25,10,-100,-100,-100,0,0,100,0.00,40.00,0,-999,0,0.00
2013-2-22,35,27,21,-100,-100,-100,0,0,100,0.00,40.00,0,-999,0,0.00
2013-2-23,32,25,18,-100,-100,-100,0,0,100,0.00,40.00,0,-999,0,0.00
2013-2-24,39,22,4,-100,-100,-100,0,0,100,0.00,40.00,0,-999,0,0.00
2013-2-25,35,28,22,-100,-100,-100,0,0,100,0.00,40.00,0,-999,0,0.00
2013-2-26,39,23,11,-100,-100,-100,0,0,100,0.00,40.00,0,-999,0,0.00
2013-2-27,43,28,12,-100,-100,-100,0,0,100,0.00,40.00,0,-999,0,0.00
2013-2-28,44,37,29,-100,-100,-100,0,0,100,0.00,40.00,0,-999,0,0.00
2013-3-1,51,36,25,-100,-100,-100,0,0,100,0.00,40.00,0,-999,0,0.00
2013-3-2,51,39,23,-100,-100,-100,0,0,100,0.00,40.00,0,-999,0,0.00
2013-3-3,45,34,23,-100,-100,-100,0,0,100,0.00,40.00,0,-999,0,0.00
2013-3-4,46,26,14,-100,-100,-100,0,0,100,0.00,40.00,0,-999,0,0.00
2013-3-5,41,32,25,-100,-100,-100,0,0,100,0.00,40.00,0,-999,0,0.00
2013-3-6,32,28,20,-100,-100,-100,0,0,100,0.00,40.00,0,-999,0,0.00
2013-3-7,36,25,14,-100,-100,-100,0,0,100,0.00,40.00,0,-999,0,0.00
2013-3-8,40,26,12,-100,-100,-100,0,0,100,0.00,40.00,0,-999,0,0.00
2013-3-9,49,27,12,-100,-100,-100,0,0,100,0.00,40.00,0,-999,0,0.00
2013-3-10,55,31,13,-100,-100,-100,0,0,100,0.00,40.00,0,-999,0,0.00
2013-3-11,54,36,22,-100,-100,-100,0,0,100,0.00,40.00,0,-999,0,0.00
2013-3-12,58,37,22,-100,-100,-100,0,0,100,0.00,40.00,0,-999,0,0.00
2013-3-13,57,41,26,-100,-100,-100,0,0,100,0.00,40.00,0,-999,0,0.00
2013-3-14,55,38,27,-100,-100,-100,0,0,100,0.00,40.00,0,-999,0,0.00
2013-3-15,55,38,27,-100,-100,-100,0,0,100,0.00,40.00,0,-999,0,0.00
2013-3-16,47,33,21,-100,-100,-100,0,0,100,0.00,40.00,0,-999,0,0.00
2013-3-17,41,32,24,-100,-100,-100,0,0,100,0.00,40.00,0,-999,0,0.00
2013-3-18,47,30,15,-100,-100,-100,0,0,100,0.00,40.00,0,-999,0,0.00
2013-3-19,51,36,25,-100,-100,-100,0,0,100,0.00,40.00,0,-999,0,0.00
2013-3-20,39,34,26,-100,-100,-100,0,0,100,0.00,40.00,0,-999,0,0.00
2013-3-21,36,28,21,-100,-100,-100,0,0,100,0.00,40.00,0,-999,0,0.00
2013-3-22,36,26,20,-100,-100,-100,0,0,100,0.00,40.00,0,-999,0,0.00
2013-3-23,43,24,10,-100,-100,-100,0,0,100,0.00,40.00,0,-999,0,0.00
2013-3-24,51,33,18,-100,-100,-100,0,0,100,0.00,40.00,0,-999,0,0.00
2013-3-25,52,37,25,-100,-100,-100,0,0,100,0.00,40.00,0,-999,0,0.00
2013-3-26,51,40,32,-100,-100,-100,0,0,100,0.00,40.00,0,-999,0,0.00
2013-3-27,52,35,25,-100,-100,-100,0,0,100,0.00,40.00,0,-999,0,0.00
2013-3-28,50,38,30,-100,-100,-100,0,0,100,0.00,40.00,0,-999,0,0.00
2013-3-29,59,42,29,-100,-100,-100,0,0,100,0.00,40.00,0,-999,0,0.00
2013-3-30,69,45,26,-100,-100,-100,0,0,100,0.00,40.00,0,-999,0,0.00
2013-3-31,56,45,34,-100,-100,-100,0,0,100,0.00,40.00,0,-999,0,0.00
2013-4-1,47,42,36,-100,-100,-100,0,0,100,0.00,40.00,0,-999,0,0.00
2013-4-2,54,37,25,-100,-100,-100,0,0,100,0.00,40.00,0,-999,0,0.00
2013-4-3,58,39,25,-100,-100,-100,0,0,100,0.00,40.00,0,-999,0,0.00
2013-4-4,50,43,36,-100,-100,-100,0,0,100,0.00,40.00,0,-999,0,0.00
2013-4-5,47,38,33,-100,-100,-100,0,0,100,0.00,40.00,0,-999,0,0.00
2013-4-6,48,39,32,-100,-100,-100,0,0,100,0.00,40.00,0,-999,0,0.00
2013-4-7,42,35,30,-100,-100,-100,0,0,100,0.00,40.00,0,-999,0,0.00
2013-4-8,43,32,22,-100,-100,-100,0,0,100,0.00,40.00,0,-999,0,0.00
2013-4-9,54,35,16,-100,-100,-100,0,0,100,0.00,40.00,0,-999,0,0.00
2013-4-10,50,37,26,-100,-100,-100,0,0,100,0.00,40.00,0,-999,0,0.00
2013-4-11,53,37,18,-100,-100,-100,0,0,100,0.00,40.00,0,-999,0,0.00
2013-4-12,62,40,20,-100,-100,-100,0,0,100,0.00,40.00,0,-999,0,0.00
2013-4-13,43,38,31,-100,-100,-100,0,0,100,0.00,40.00,0,-999,0,0.00
2013-4-14,40,27,14,-100,-100,-100,0,0,100,0.00,40.00,0,-999,0,0.00
2013-4-15,35,28,21,-100,-100,-100,0,0,100,0.00,40.00,0,-999,0,0.00
2013-4-16,39,28,18,-100,-100,-100,0,0,100,0.00,40.00,0,-999,0,0.00
2013-4-17,47,33,19,-100,-100,-100,0,0,100,0.00,40.00,0,-999,0,0.00
2013-4-18,58,38,24,-100,-100,-100,0,0,100,0.00,40.00,0,-999,0,0.00
2013-4-19,51,40,32,-100,-100,-100,0,0,100,0.00,40.00,0,-999,0,0.00
2013-4-20,58,40,20,-100,-100,-100,0,0,100,0.00,40.00,0,-999,0,0.00
2013-4-21,57,35,19,-100,-100,-100,0,0,100,0.00,40.00,0,-999,0,0.00
2013-4-22,54,38,23,-100,-100,-100,0,0,100,0.00,40.00,0,-999,0,0.00
2013-4-23,65,40,16,-100,-100,-100,0,0,100,0.00,40.00,0,-999,0,0.00
2013-4-24,66,47,21,-100,-100,-100,0,0,100,0.00,40.00,0,-999,0,0.00
2013-4-25,69,46,16,-100,-100,-100,0,0,100,0.00,40.00,0,-999,0,0.00
2013-4-26,72,53,27,-100,-100,-100,0,0,100,0.00,40.00,0,-999,0,0.00
2013-4-27,72,48,25,-100,-100,-100,0,0,100,0.00,40.00,0,-999,0,0.00
2013-4-28,62,50,36,-100,-100,-100,0,0,100,0.00,40.00,0,-999,0,0.00
2013-4-29,57,44,28,-100,-100,-100,0,0,100,0.00,40.00,0,-999,0,0.00
2013-4-30,54,38,23,-100,-100,-100,0,0,100,0.00,40.00,0,-999,0,0.00
2013-5-1,63,38,16,-100,-100,-100,0,0,100,0.00,40.00,0,-999,0,0.00
2013-5-2,71,46,21,-100,-100,-100,0,0,100,0.00,40.00,0,-999,0,0.00
2013-5-3,67,52,29,-100,-100,-100,0,0,100,0.00,40.00,0,-999,0,0.00
2013-5-4,63,50,29,-100,-100,-100,0,0,100,0.00,40.00,0,-999,0,0.00
2013-5-5,69,54,29,-100,-100,-100,0,0,100,0.00,40.00,0,-999,0,0.00
2013-5-6,72,52,36,-100,-100,-100,0,0,100,0.00,40.00,0,-999,0,0.00
2013-5-7,67,54,41,-100,-100,-100,0,0,100,0.00,40.00,0,-999,0,0.00
2013-5-8,65,51,36,-100,-100,-100,0,0,100,0.00,40.00,0,-999,0,0.00
2013-5-9,71,70,69,-100,-100,-100,0,0,100,0.00,40.00,0,-999,0,0.00
2013-5-10,79,72,65,-100,-100,-100,0,0,100,0.00,40.00,0,-999,0,0.00
2013-5-11,79,63,40,-100,-100,-100,0,0,100,0.00,40.00,0,-999,0,0.00
2013-5-12,76,58,38,-100,-100,-100,0,0,100,0.00,40.00,0,-999,0,0.00
2013-5-13,66,51,36,-100,-100,-100,0,0,100,0.00,40.00,0,-999,0,0.00
2013-5-14,69,48,26,-100,-100,-100,0,0,100,0.00,40.00,0,-999,0,0.00
2013-5-15,61,47,31,-100,-100,-100,0,0,100,0.00,40.00,0,-999,0,0.00
2013-5-16,54,44,32,-100,-100,-100,0,0,100,0.00,40.00,0,-999,0,0.00
2013-5-17,55,40,30,-100,-100,-100,0,0,100,0.00,40.00,0,-999,0,0.00
2013-5-18,53,39,25,-100,-100,-100,0,0,100,0.00,40.00,0,-999,0,0.00
2013-5-19,61,44,25,-100,-100,-100,0,0,100,0.00,40.00,0,-999,0,0.00
2013-5-20,69,47,25,-100,-100,-100,0,0,100,0.00,40.00,0,-999,0,0.00
2013-5-21,47,39,26,-100,-100,-100,0,0,100,0.00,40.00,0,-999,0,0.00
2013-5-22,43,32,20,-100,-100,-100,0,0,100,0.00,40.00,0,-999,0,0.00
2013-5-23,51,37,26,-100,-100,-100,0,0,100,0.00,40.00,0,-999,0,0.00
2013-5-24,56,45,32,-100,-100,-100,0,0,100,0.00,40.00,0,-999,0,0.00
2013-5-25,62,43,23,-100,-100,-100,0,0,100,0.00,40.00,0,-999,0,0.00
2013-5-26,58,46,36,-100,-100,-100,0,0,100,0.00,40.00,0,-999,0,0.00
2013-5-27,49,41,34,-100,-100,-100,0,0,100,0.00,40.00,0,-999,0,0.00
2013-5-28,58,46,33,-100,-100,-100,0,0,100,0.00,40.00,0,-999,0,0.00
2013-5-29,54,47,41,-100,-100,-100,0,0,100,0.00,40.00,0,-999,0,0.00
2013-5-30,62,44,26,-100,-100,-100,0,0,100,0.00,40.00,0,-999,0,0.00
2013-5-31,70,47,25,-100,-100,-100,0,0,100,0.00,40.00,0,-999,0,0.00
2013-6-1,76,55,34,-100,-100,-100,0,0,100,0.00,40.00,0,-999,0,0.00
2013-6-2,70,53,31,-100,-100,-100,0,0,100,0.00,40.00,0,-999,0,0.00
2013-6-3,76,56,29,-100,-100,-100,0,0,100,0.00,40.00,0,-999,0,0.00
2013-6-4,83,65,36,-100,-100,-100,0,0,100,0.00,40.00,0,-999,0,0.00
2013-6-5,87,68,36,-100,-100,-100,0,0,100,0.00,40.00,0,-999,0,0.00
2013-6-6,84,59,41,-100,-100,-100,0,0,100,0.00,40.00,0,-999,0,0.00
2013-6-7,83,64,43,-100,-100,-100,0,0,100,0.00,40.00,0,-999,0,0.00
2013-6-8,87,62,36,-100,-100,-100,0,0,100,0.00,40.00,0,-999,0,0.00
2013-6-9,88,64,40,-100,-100,-100,0,0,100,0.00,40.00,0,-999,0,0.00
2013-6-10,81,58,38,-100,-100,-100,0,0,100,0.00,40.00,0,-999,0,0.00
2013-6-11,67,50,29,-100,-100,-100,0,0,100,0.00,40.00,0,-999,0,0.00
2013-6-12,62,45,23,-100,-100,-100,0,0,100,0.00,40.00,0,-999,0,0.00
2013-6-13,53,40,25,-100,-100,-100,0,0,100,0.00,40.00,0,-999,0,0.00
2013-6-14,69,49,21,-100,-100,-100,0,0,100,0.00,40.00,0,-999,0,0.00
2013-6-15,76,56,28,-100,-100,-100,0,0,100,0.00,40.00,0,-999,0,0.00
2013-6-16,73,53,36,-100,-100,-100,0,0,100,0.00,40.00,0,-999,0,0.00
2013-6-17,70,58,35,-100,-100,-100,0,0,100,0.00,40.00,0,-999,0,0.00
2013-6-18,61,51,43,-100,-100,-100,0,0,100,0.00,40.00,0,-999,0,0.00
2013-6-19,51,43,36,-100,-100,-100,0,0,100,0.00,40.00,0,-999,0,0.00
2013-6-20,48,34,25,-100,-100,-100,0,0,100,0.00,40.00,0,-999,0,0.00
2013-6-22,73,60,33,-100,-100,-100,0,0,100,0.00,40.00,0,-999,0,0.00
2013-6-23,58,51,47,-100,-100,-100,0,0,100,0.00,40.00,0,-999,0,0.00
2013-6-24,53,47,42,-100,-100,-100,0,0,100,0.00,40.00,0,-999,0,0.00
2013-6-25,55,49,43,-100,-100,-100,0,0,100,0.00,40.00,0,-999,0,0.00
2013-6-26,69,56,43,-100,-100,-100,0,0,100,0.00,40.00,0,-999,0,0.00
2013-6-27,81,62,40,-100,-100,-100,0,0,100,0.00,40.00,0,-999,0,0.00
2013-6-28,87,65,42,-100,-100,-100,0,0,100,0.00,40.00,0,-999,0,0.00
2013-6-29,85,67,48,-100,-100,-100,0,0,100,0.00,40.00,0,-999,0,0.00
2013-6-30,90,68,47,-100,-100,-100,0,0,100,0.00,40.00,0,-999,0,0.00
2013-7-1,92,77,57,-100,-100,-100,0,0,100,0.00,40.00,0,-999,0,0.00
2013-7-2,94,73,51,-100,-100,-100,0,0,100,0.00,40.00,0,-999,0,0.00
2013-7-3,92,76,55,-100,-100,-100,0,0,100,0.00,40.00,0,-999,0,0.00
2013-7-4,86,66,43,-100,-100,-100,0,0,100,0.00,40.00,0,-999,0,0.00
2013-7-5,82,61,37,-100,-100,-100,0,0,100,0.00,40.00,0,-999,0,0.00
2013-7-6,83,56,35,-100,-100,-100,0,0,100,0.00,40.00,0,-999,0,0.00
2013-7-7,83,64,40,-100,-100,-100,0,0,100,0.00,40.00,0,-999,0,0.00
2013-7-8,86,60,40,-100,-100,-100,0,0,100,0.00,40.00,0,-999,0,0.00
2013-7-9,84,69,45,-100,-100,-100,0,0,100,0.00,40.00,0,-999,0,0.00
2013-7-10,82,64,43,-100,-100,-100,0,0,100,0.00,40.00,0,-999,0,0.00
2013-7-11,80,61,41,-100,-100,-100,0,0,100,0.00,40.00,0,-999,0,0.00
2013-7-12,77,56,34,-100,-100,-100,0,0,100,0.00,40.00,0,-999,0,0.00
2013-7-15,87,80,68,-100,-100,-100,0,0,100,0.00,40.00,0,-999,0,0.00
2013-7-16,83,63,51,-100,-100,-100,0,0,100,0.00,40.00,0,-999,0,0.00
2013-7-17,84,62,40,-100,-100,-100,0,0,100,0.00,40.00,0,-999,0,0.00
2013-7-18,87,65,39,-100,-100,-100,0,0,100,0.00,40.00,0,-999,0,0.00
2013-7-19,94,69,39,-100,-100,-100,0,0,100,0.00,40.00,0,-999,0,0.00
2013-7-20,94,70,40,-100,-100,-100,0,0,100,0.00,40.00,0,-999,0,0.00
2013-7-21,94,67,42,-100,-100,-100,0,0,100,0.00,40.00,0,-999,0,0.00
2013-7-22,92,72,33,-100,-100,-100,0,0,100,0.00,40.00,0,-999,0,0.00
2013-7-23,85,66,39,-100,-100,-100,0,0,100,0.00,40.00,0,-999,0,0.00
2013-7-24,84,68,51,-100,-100,-100,0,0,100,0.00,40.00,0,-999,0,0.00
2013-7-25,91,72,54,-100,-100,-100,0,0,100,0.00,40.00,0,-999,0,0.00
2013-7-26,87,68,47,-100,-100,-100,0,0,100,0.00,40.00,0,-999,0,0.00
2013-7-27,87,63,42,-100,-100,-100,0,0,100,0.00,40.00,0,-999,0,0.00
2013-7-28,79,59,34,-100,-100,-100,0,0,100,0.00,40.00,0,-999,0,0.00
2013-7-29,81,57,30,-100,-100,-100,0,0,100,0.00,40.00,0,-999,0,0.00
2013-7-30,78,57,35,-100,-100,-100,0,0,100,0.00,40.00,0,-999,0,0.00
2013-7-31,80,58,46,-100,-100,-100,0,0,100,0.00,40.00,0,-999,0,0.00
2013-8-1,71,55,42,-100,-100,-100,0,0,100,0.00,40.00,0,-999,0,0.00
2013-8-2,72,46,27,-100,-100,-100,0,0,100,0.00,40.00,0,-999,0,0.00
2013-8-3,80,58,35,-100,-100,-100,0,0,100,0.00,40.00,0,-999,0,0.00
2013-8-4,85,62,36,-100,-100,-100,0,0,100,0.00,40.00,0,-999,0,0.00
2013-8-5,82,61,38,-100,-100,-100,0,0,100,0.00,40.00,0,-999,0,0.00
2013-8-6,88,61,40,-100,-100,-100,0,0,100,0.00,40.00,0,-999,0,0.00
2013-8-7,69,60,53,-100,-100,-100,0,0,100,0.00,40.00,0,-999,0,0.00
2013-8-8,73,52,35,-100,-100,-100,0,0,100,0.00,40.00,0,-999,0,0.00
2013-8-9,69,58,39,-100,-100,-100,0,0,100,0.00,40.00,0,-999,0,0.00
2013-8-10,69,52,34,-100,-100,-100,0,0,100,0.00,40.00,0,-999,0,0.00
2013-8-11,76,59,40,-100,-100,-100,0,0,100,0.00,40.00,0,-999,0,0.00
2013-8-12,78,60,36,-100,-100,-100,0,0,100,0.00,40.00,0,-999,0,0.00
2013-8-13,83,58,36,-100,-100,-100,0,0,100,0.00,40.00,0,-999,0,0.00
2013-8-14,83,61,37,-100,-100,-100,0,0,100,0.00,40.00,0,-999,0,0.00
2013-8-15,83,59,37,-100,-100,-100,0,0,100,0.00,40.00,0,-999,0,0.00
2013-8-16,81,64,40,-100,-100,-100,0,0,100,0.00,40.00,0,-999,0,0.00
2013-8-17,81,64,44,-100,-100,-100,0,0,100,0.00,40.00,0,-999,0,0.00
2013-8-18,89,63,36,-100,-100,-100,0,0,100,0.00,40.00,0,-999,0,0.00
2013-8-19,89,67,43,-100,-100,-100,0,0,100,0.00,40.00,0,-999,0,0.00
2013-8-20,88,65,40,-100,-100,-100,0,0,100,0.00,40.00,0,-999,0,0.00
2013-8-21,86,68,50,-100,-100,-100,0,0,100,0.00,40.00,0,-999,0,0.00
2013-8-22,67,54,45,-100,-100,-100,0,0,100,0.00,40.00,0,-999,0,0.00
2013-8-23,75,56,38,-100,-100,-100,0,0,100,0.00,40.00,0,-999,0,0.00
2013-8-24,74,55,40,-100,-100,-100,0,0,100,0.00,40.00,0,-999,0,0.00
2013-8-25,64,54,46,-100,-100,-100,0,0,100,0.00,40.00,0,-999,0,0.00
2013-8-26,68,55,42,-100,-100,-100,0,0,100,0.00,40.00,0,-999,0,0.00
2013-8-27,69,48,32,-100,-100,-100,0,0,100,0.00,40.00,0,-999,0,0.00
2013-8-28,79,68,54,-100,-100,-100,0,0,100,0.00,40.00,0,-999,0,0.00
2013-8-29,76,56,43,-100,-100,-100,0,0,100,0.00,40.00,0,-999,0,0.00
2013-8-30,79,55,36,-100,-100,-100,0,0,100,0.00,40.00,0,-999,0,0.00
2013-8-31,86,60,34,-100,-100,-100,0,0,100,0.00,40.00,0,-999,0,0.00
2013-9-1,83,62,36,-100,-100,-100,0,0,100,0.00,40.00,0,-999,0,0.00
2013-9-2,76,56,35,-100,-100,-100,0,0,100,0.00,40.00,0,-999,0,0.00
2013-9-3,77,51,35,-100,-100,-100,0,0,100,0.00,40.00,0,-999,0,0.00
2013-9-4,77,58,32,-100,-100,-100,0,0,100,0.00,40.00,0,-999,0,0.00
2013-9-5,62,50,39,-100,-100,-100,0,0,100,0.00,40.00,0,-999,0,0.00
2013-9-6,71,50,33,-100,-100,-100,0,0,100,0.00,40.00,0,-999,0,0.00
2013-9-7,80,58,37,-100,-100,-100,0,0,100,0.00,40.00,0,-999,0,0.00
2013-9-8,80,56,35,-100,-100,-100,0,0,100,0.00,40.00,0,-999,0,0.00
2013-9-9,82,58,32,-100,-100,-100,0,0,100,0.00,40.00,0,-999,0,0.00
2013-9-10,86,64,36,-100,-100,-100,0,0,100,0.00,40.00,0,-999,0,0.00
2013-9-11,88,63,37,-100,-100,-100,0,0,100,0.00,40.00,0,-999,0,0.00
2013-9-12,86,62,40,-100,-100,-100,0,0,100,0.00,40.00,0,-999,0,0.00
2013-9-13,83,65,45,-100,-100,-100,0,0,100,0.00,40.00,0,-999,0,0.00
2013-9-14,86,60,33,-100,-100,-100,0,0,100,0.00,40.00,0,-999,0,0.00
2013-9-15,79,58,37,-100,-100,-100,0,0,100,0.00,40.00,0,-999,0,0.00
2013-9-16,71,53,32,-100,-100,-100,0,0,100,0.00,40.00,0,-999,0,0.00
2013-9-17,57,48,42,-100,-100,-100,0,0,100,0.00,40.00,0,-999,0,0.00
2013-9-18,45,38,33,-100,-100,-100,0,0,100,0.00,40.00,0,-999,0,0.00
2013-9-19,73,45,24,-100,-100,-100,0,0,100,0.00,40.00,0,-999,0,0.00
2013-9-20,69,44,25,-100,-100,-100,0,0,100,0.00,40.00,0,-999,0,0.00
2013-9-21,52,42,36,-100,-100,-100,0,0,100,0.00,40.00,0,-999,0,0.00
2013-9-22,49,42,28,-100,-100,-100,0,0,100,0.00,40.00,0,-999,0,0.00
2013-9-23,56,49,44,-100,-100,-100,0,0,100,0.00,40.00,0,-999,0,0.00
2013-9-24,50,42,36,-100,-100,-100,0,0,100,0.00,40.00,0,-999,0,0.00
2013-9-25,48,36,27,-100,-100,-100,0,0,100,0.00,40.00,0,-999,0,0.00
2013-9-26,49,34,19,-100,-100,-100,0,0,100,0.00,40.00,0,-999,0,0.00
2013-9-27,59,36,19,-100,-100,-100,0,0,100,0.00,40.00,0,-999,0,0.00
2013-9-28,59,50,40,-100,-100,-100,0,0,100,0.00,40.00,0,-999,0,0.00
2013-9-29,47,44,40,-100,-100,-100,0,0,100,0.00,40.00,0,-999,0,0.00
2013-9-30,49,42,35,-100,-100,-100,0,0,100,0.00,40.00,0,-999,0,0.00
2013-10-1,47,36,25,-100,-100,-100,0,0,100,0.00,40.00,0,-999,0,0.00
2013-10-2,48,34,17,-100,-100,-100,0,0,100,0.00,40.00,0,-999,0,0.00
2013-10-3,51,35,23,-100,-100,-100,0,0,100,0.00,40.00,0,-999,0,0.00
2013-10-4,58,36,21,-100,-100,-100,0,0,100,0.00,40.00,0,-999,0,0.00
2013-10-5,65,38,18,-100,-100,-100,0,0,100,0.00,40.00,0,-999,0,0.00
2013-10-6,69,47,20,-100,-100,-100,0,0,100,0.00,40.00,0,-999,0,0.00
2013-10-7,56,36,26,-100,-100,-100,0,0,100,0.00,40.00,0,-999,0,0.00
2013-10-8,50,33,20,-100,-100,-100,0,0,100,0.00,40.00,0,-999,0,0.00
2013-10-9,47,35,27,-100,-100,-100,0,0,100,0.00,40.00,0,-999,0,0.00
2013-10-10,58,38,22,-100,-100,-100,0,0,100,0.00,40.00,0,-999,0,0.00
2013-10-11,52,34,16,-100,-100,-100,0,0,100,0.00,40.00,0,-999,0,0.00
2013-10-12,47,32,21,-100,-100,-100,0,0,100,0.00,40.00,0,-999,0,0.00
2013-10-13,50,35,26,-100,-100,-100,0,0,100,0.00,40.00,0,-999,0,0.00
2013-10-14,57,40,20,-100,-100,-100,0,0,100,0.00,40.00,0,-999,0,0.00
2013-10-15,54,36,16,-100,-100,-100,0,0,100,0.00,40.00,0,-999,0,0.00
2013-10-16,62,41,18,-100,-100,-100,0,0,100,0.00,40.00,0,-999,0,0.00
2013-10-17,65,39,18,-100,-100,-100,0,0,100,0.00,40.00,0,-999,0,0.00
2013-10-18,63,37,18,-100,-100,-100,0,0,100,0.00,40.00,0,-999,0,0.00
2013-10-19,69,43,17,-100,-100,-100,0,0,100,0.00,40.00,0,-999,0,0.00
2013-10-20,69,44,19,-100,-100,-100,0,0,100,0.00,40.00,0,-999,0,0.00
2013-10-21,69,46,24,-100,-100,-100,0,0,100,0.00,40.00,0,-999,0,0.00
2013-10-22,69,40,21,-100,-100,-100,0,0,100,0.00,40.00,0,-999,0,0.00
2013-10-23,68,41,20,-100,-100,-100,0,0,100,0.00,40.00,0,-999,0,0.00
2013-10-24,68,42,20,-100,-100,-100,0,0,100,0.00,40.00,0,-999,0,0.00
2013-10-25,65,41,20,-100,-100,-100,0,0,100,0.00,40.00,0,-999,0,0.00
2013-10-26,68,35,17,-100,-100,-100,0,0,100,0.00,40.00,0,-999,0,0.00
2013-10-27,47,29,17,-100,-100,-100,0,0,100,0.00,40.00,0,-999,0,0.00
2013-10-28,34,30,24,-100,-100,-100,0,0,100,0.00,40.00,0,-999,0,0.00
2013-10-29,44,29,11,-100,-100,-100,0,0,100,0.00,40.00,0,-999,0,0.00
2013-10-30,54,34,14,-100,-100,-100,0,0,100,0.00,40.00,0,-999,0,0.00
2013-10-31,55,36,22,-100,-100,-100,0,0,100,0.00,40.00,0,-999,0,0.00
2013-11-1,58,35,21,-100,-100,-100,0,0,100,0.00,40.00,0,-999,0,0.00
2013-11-2,44,36,26,-100,-100,-100,0,0,100,0.00,40.00,0,-999,0,0.00
2013-11-3,36,29,24,-100,-100,-100,0,0,100,0.00,40.00,0,-999,0,0.00
2013-11-4,43,32,20,-100,-100,-100,0,0,100,0.00,40.00,0,-999,0,0.00
2013-11-5,43,35,29,-100,-100,-100,0,0,100,0.00,40.00,0,-999,0,0.00
2013-11-6,51,42,36,-100,-100,-100,0,0,100,0.00,40.00,0,-999,0,0.00
2013-11-7,47,40,25,-100,-100,-100,0,0,100,0.00,40.00,0,-999,0,0.00
2013-11-8,46,31,19,-100,-100,-100,0,0,100,0.00,40.00,0,-999,0,0.00
2013-11-9,53,38,14,-100,-100,-100,0,0,100,0.00,40.00,0,-999,0,0.00
2013-11-10,55,34,22,-100,-100,-100,0,0,100,0.00,40.00,0,-999,0,0.00
2013-11-11,57,39,18,-100,-100,-100,0,0,100,0.00,40.00,0,-999,0,0.00
2013-11-12,54,46,32,-100,-100,-100,0,0,100,0.00,40.00,0,-999,0,0.00
2013-11-13,54,34,19,-100,-100,-100,0,0,100,0.00,40.00,0,-999,0,0.00
2013-11-14,50,33,18,-100,-100,-100,0,0,100,0.00,40.00,0,-999,0,0.00
2013-11-15,41,29,14,-100,-100,-100,0,0,100,0.00,40.00,0,-999,0,0.00
2013-11-16,40,35,29,-100,-100,-100,0,0,100,0.00,40.00,0,-999,0,0.00
2013-11-17,46,32,23,-100,-100,-100,0,0,100,0.00,40.00,0,-999,0,0.00
2013-11-18,40,33,24,-100,-100,-100,0,0,100,0.00,40.00,0,-999,0,0.00
2013-11-19,40,37,34,-100,-100,-100,0,0,100,0.00,40.00,0,-999,0,0.00
2013-11-20,35,29,18,-100,-100,-100,0,0,100,0.00,40.00,0,-999,0,0.00
2013-11-21,38,22,10,-100,-100,-100,0,0,100,0.00,40.00,0,-999,0,0.00
2013-11-22,44,24,7,-100,-100,-100,0,0,100,0.00,40.00,0,-999,0,0.00
2013-11-23,50,30,16,-100,-100,-100,0,0,100,0.00,40.00,0,-999,0,0.00
2013-11-24,48,24,7,-100,-100,-100,0,0,100,0.00,40.00,0,-999,0,0.00
2013-11-25,51,28,14,-100,-100,-100,0,0,100,0.00,40.00,0,-999,0,0.00
2013-11-26,46,32,13,-100,-100,-100,0,0,100,0.00,40.00,0,-999,0,0.00
2013-11-27,46,25,17,-100,-100,-100,0,0,100,0.00,40.00,0,-999,0,0.00
2013-11-28,54,27,14,-100,-100,-100,0,0,100,0.00,40.00,0,-999,0,0.00
2013-11-29,50,32,12,-100,-100,-100,0,0,100,0.00,40.00,0,-999,0,0.00
2013-11-30,52,33,26,-100,-100,-100,0,0,100,0.00,40.00,0,-999,0,0.00
2013-12-1,51,39,26,-100,-100,-100,0,0,100,0.00,40.00,0,-999,0,0.00
2013-12-2,41,34,21,-100,-100,-100,0,0,100,0.00,40.00,0,-999,0,0.00
2013-12-3,26,16,3,-100,-100,-100,0,0,100,0.00,40.00,0,-999,0,0.00
2013-12-4,21,17,3,-100,-100,-100,0,0,100,0.00,40.00,0,-999,0,0.00
2013-12-5,22,12,-10,-100,-100,-100,0,0,100,0.00,40.00,0,-999,0,0.00
2013-12-6,21,11,3,-100,-100,-100,0,0,100,0.00,40.00,0,-999,0,0.00
2013-12-7,9,1,-19,-100,-100,-100,0,0,100,0.00,40.00,0,-999,0,0.00
2013-12-8,10,-2,-25,-100,-100,-100,0,0,100,0.00,40.00,0,-999,0,0.00
2013-12-9,17,7,-21,-100,-100,-100,0,0,100,0.00,40.00,0,-999,0,0.00
2013-12-10,24,8,-9,-100,-100,-100,0,0,100,0.00,40.00,0,-999,0,0.00
2013-12-11,29,18,-5,-100,-100,-100,0,0,100,0.00,40.00,0,-999,0,0.00
2013-12-12,33,18,2,-100,-100,-100,0,0,100,0.00,40.00,0,-999,0,0.00
2013-12-13,39,25,13,-100,-100,-100,0,0,100,0.00,40.00,0,-999,0,0.00
2013-12-14,35,20,14,-100,-100,-100,0,0,100,0.00,40.00,0,-999,0,0.00
2013-12-15,36,25,13,-100,-100,-100,0,0,100,0.00,40.00,0,-999,0,0.00
2013-12-16,44,28,11,-100,-100,-100,0,0,100,0.00,40.00,0,-999,0,0.00
2013-12-17,45,35,21,-100,-100,-100,0,0,100,0.00,40.00,0,-999,0,0.00
2013-12-18,34,27,13,-100,-100,-100,0,0,100,0.00,40.00,0,-999,0,0.00
2013-12-19,29,21,7,-100,-100,-100,0,0,100,0.00,40.00,0,-999,0,0.00
2013-12-20,37,17,2,-100,-100,-100,0,0,100,0.00,40.00,0,-999,0,0.00
2013-12-21,43,35,24,-100,-100,-100,0,0,100,0.00,40.00,0,-999,0,0.00
2013-12-22,47,35,22,-100,-100,-100,0,0,100,0.00,40.00,0,-999,0,0.00
2013-12-23,43,32,22,-100,-100,-100,0,0,100,0.00,40.00,0,-999,0,0.00
2013-12-25,44,24,10,-100,-100,-100,0,0,100,0.00,40.00,0,-999,0,0.00
2013-12-26,46,33,16,-100,-100,-100,0,0,100,0.00,40.00,0,-999,0,0.00
2013-12-27,35,23,14,-100,-100,-100,0,0,100,0.00,40.00,0,-999,0,0.00
2013-12-28,43,25,8,-100,-100,-100,0,0,100,0.00,40.00,0,-999,0,0.00
2013-12-29,38,23,11,-100,-100,-100,0,0,100,0.00,40.00,0,-999,0,0.00
2013-12-30,36,29,18,-100,-100,-100,0,0,100,0.00,40.00,0,-999,0,0.00
2013-12-31,47,31,21,-100,-100,-100,0,0,100,0.00,40.00,0,-999,0,0.00
2014-1-1,47,28,15,-100,-100,-100,0,0,100,0.00,40.00,0,-999,0,0.00
2014-1-2,48,36,20,-100,-100,-100,0,0,100,0.00,40.00,0,-999,0,0.00